Time;durP1;ratioP1;P1;durP2;ratioP2;P2;SDS_P1;SDS_P2;PMS_P1;PMS_P2;Temp;Humidity;BMP_temperature;BMP_pressure;BME280_temperature;BME280_humidity;BME280_pressure;Samples;Min_cycle;Max_cycle;Signal;HPM_P1;HPM_P2
2024/04/16 00:00:15;;;;;;;0.95;0.60;;;16.70;59.00;;;;;;5415060;26;20259;-73
2024/04/16 00:02:40;;;;;;;1.63;0.80;;;16.70;59.00;;;;;;5414488;26;20691;-76
2024/04/16 00:05:06;;;;;;;1.58;1.02;;;16.70;58.90;;;;;;5382916;26;20324;-73
2024/04/16 00:07:31;;;;;;;2.15;0.88;;;16.70;58.90;;;;;;5414834;26;20275;-73
2024/04/16 00:09:57;;;;;;;2.00;0.77;;;16.70;58.90;;;;;;5414464;26;20291;-74
2024/04/16 00:12:23;;;;;;;1.90;0.80;;;16.70;58.90;;;;;;5414015;26;20221;-75
2024/04/16 00:14:48;;;;;;;1.17;0.70;;;16.70;58.90;;;;;;5414337;26;20259;-76
2024/04/16 00:17:18;;;;;;;2.72;1.02;;;16.70;58.90;;;;;;5414532;26;20237;-74
2024/04/16 00:19:44;;;;;;;1.00;0.70;;;16.70;58.90;;;;;;5416193;26;20216;-72
2024/04/16 00:22:09;;;;;;;2.25;0.77;;;16.70;58.90;;;;;;5418353;26;20263;-73
2024/04/16 00:24:35;;;;;;;1.55;0.90;;;16.70;58.90;;;;;;5418333;26;20252;-73
2024/04/16 00:27:00;;;;;;;2.03;0.90;;;16.70;58.90;;;;;;5417066;26;20217;-75
2024/04/16 00:29:26;;;;;;;1.63;0.82;;;16.60;58.90;;;;;;5418209;26;20232;-74
2024/04/16 00:31:51;;;;;;;1.25;0.85;;;16.60;58.90;;;;;;5416989;26;20225;-75
2024/04/16 00:34:17;;;;;;;1.05;0.60;;;16.70;58.90;;;;;;5418228;26;20224;-73
2024/04/16 00:36:42;;;;;;;1.90;0.85;;;16.60;58.80;;;;;;5417873;26;20228;-74
2024/04/16 00:39:12;;;;;;;2.10;0.95;;;16.60;58.90;;;;;;5417178;26;20213;-73
2024/04/16 00:41:38;;;;;;;1.23;0.70;;;16.60;58.90;;;;;;5418124;26;20316;-73
2024/04/16 00:44:03;;;;;;;1.95;1.02;;;16.60;58.90;;;;;;5417723;26;20726;-72
2024/04/16 00:46:29;;;;;;;1.58;0.80;;;16.60;58.90;;;;;;5417220;26;20220;-73
2024/04/16 00:48:54;;;;;;;2.20;1.05;;;16.60;58.80;;;;;;5357211;26;21256;-73
2024/04/16 00:51:20;;;;;;;1.75;0.70;;;16.60;58.80;;;;;;5386660;26;20228;-73
2024/04/16 00:53:45;;;;;;;2.35;1.10;;;16.60;58.80;;;;;;5356408;26;20329;-73
2024/04/16 00:56:11;;;;;;;2.10;0.98;;;16.60;58.90;;;;;;5417916;26;20232;-72
2024/04/16 00:58:37;;;;;;;4.72;1.00;;;16.60;58.90;;;;;;5357603;26;20224;-73
2024/04/16 01:01:02;;;;;;;1.42;0.88;;;16.60;58.90;;;;;;5356206;26;20325;-72
2024/04/16 01:03:28;;;;;;;2.97;1.00;;;16.50;58.90;;;;;;5417615;26;20252;-72
2024/04/16 01:05:53;;;;;;;1.77;0.80;;;16.60;58.80;;;;;;5417322;26;20672;-73
2024/04/16 01:08:19;;;;;;;2.25;0.80;;;16.50;59.40;;;;;;5416764;26;20675;-75
2024/04/16 01:10:44;;;;;;;3.03;1.05;;;16.60;58.80;;;;;;5417238;26;20224;-75
2024/04/16 01:13:10;;;;;;;1.27;0.60;;;16.50;58.80;;;;;;5417713;26;20280;-74
2024/04/16 01:15:35;;;;;;;2.78;1.00;;;16.60;58.80;;;;;;5416812;26;20232;-74
2024/04/16 01:18:06;;;;;;;1.95;1.10;;;16.50;58.80;;;;;;5449705;26;20271;-73
2024/04/16 01:20:31;;;;;;;1.58;0.63;;;16.50;58.80;;;;;;5453455;26;20651;-74
2024/04/16 01:22:57;;;;;;;2.38;1.15;;;16.50;58.80;;;;;;5391023;26;20235;-72
2024/04/16 01:25:22;;;;;;;1.02;0.90;;;16.50;58.80;;;;;;5453361;26;20686;-74
2024/04/16 01:27:48;;;;;;;1.63;1.00;;;16.50;58.80;;;;;;5453021;26;20227;-76
2024/04/16 01:30:13;;;;;;;1.83;0.95;;;16.50;58.80;;;;;;5452470;26;20557;-75
2024/04/16 01:32:39;;;;;;;1.85;1.00;;;16.50;58.80;;;;;;5453370;26;20682;-76
2024/04/16 01:35:04;;;;;;;2.10;0.90;;;16.50;58.80;;;;;;5452529;26;20754;-75
2024/04/16 01:37:30;;;;;;;2.60;0.93;;;16.50;58.80;;;;;;5452944;26;20721;-74
2024/04/16 01:39:55;;;;;;;2.00;1.05;;;16.40;58.70;;;;;;5452692;26;20223;-73
2024/04/16 01:42:21;;;;;;;4.13;1.17;;;16.50;58.80;;;;;;5420623;26;20258;-72
2024/04/16 01:44:50;;;;;;;1.58;1.08;;;16.40;58.70;;;;;;5452692;26;20223;-73
2024/04/16 01:47:16;;;;;;;1.50;0.80;;;16.50;58.80;;;;;;5453074;26;20274;-73
2024/04/16 01:49:41;;;;;;;2.45;0.93;;;16.40;58.60;;;;;;5451726;26;20266;-73
2024/04/16 01:52:07;;;;;;;2.08;0.95;;;16.50;58.70;;;;;;5453011;26;20714;-73
2024/04/16 01:54:32;;;;;;;2.55;0.90;;;16.50;58.70;;;;;;5452958;26;20708;-72
2024/04/16 01:56:58;;;;;;;1.52;0.77;;;16.40;58.70;;;;;;5451844;26;20219;-74
2024/04/16 01:59:23;;;;;;;2.45;1.00;;;16.40;58.60;;;;;;5452728;26;20261;-73
2024/04/16 02:01:49;;;;;;;1.30;0.90;;;16.40;58.70;;;;;;5452509;26;20312;-72
2024/04/16 02:04:14;;;;;;;1.23;0.73;;;16.40;58.60;;;;;;5452029;26;20742;-74
2024/04/16 02:06:40;;;;;;;1.63;0.73;;;16.40;58.60;;;;;;5452577;26;20682;-73
2024/04/16 02:09:05;;;;;;;3.42;1.02;;;16.40;58.70;;;;;;5452728;26;20219;-75
2024/04/16 02:11:31;;;;;;;2.58;0.80;;;16.40;58.60;;;;;;5451945;26;20223;-75
2024/04/16 02:13:56;;;;;;;1.65;1.05;;;16.40;58.60;;;;;;5452264;26;20258;-77
2024/04/16 02:16:22;;;;;;;1.60;0.80;;;16.30;58.60;;;;;;5452408;26;20286;-74
2024/04/16 02:18:47;;;;;;;2.85;1.00;;;16.30;58.60;;;;;;5451323;26;20258;-72
2024/04/16 02:21:13;;;;;;;2.95;0.98;;;16.40;58.60;;;;;;5452642;26;20620;-72
2024/04/16 02:23:40;;;;;;;1.88;0.88;;;16.40;58.60;;;;;;5452524;26;20261;-72
2024/04/16 02:26:06;;;;;;;2.05;1.02;;;16.40;58.60;;;;;;5451726;26;20223;-75
2024/04/16 02:28:32;;;;;;;2.22;1.00;;;16.40;58.70;;;;;;5452592;26;20682;-74
2024/04/16 02:30:57;;;;;;;2.38;1.10;;;16.30;59.20;;;;;;5452185;26;20419;-75
2024/04/16 02:33:23;;;;;;;1.77;1.02;;;16.30;58.60;;;;;;5451674;26;20244;-73
2024/04/16 02:35:48;;;;;;;2.13;1.00;;;16.30;58.60;;;;;;5452022;26;20269;-74
2024/04/16 02:38:14;;;;;;;1.60;1.00;;;16.30;58.60;;;;;;5452339;26;20293;-75
2024/04/16 02:40:40;;;;;;;2.08;0.90;;;16.30;58.60;;;;;;5450941;26;20315;-72
2024/04/16 02:43:05;;;;;;;2.72;1.23;;;16.30;58.60;;;;;;5451862;26;20674;-71
2024/04/16 02:45:31;;;;;;;1.90;0.90;;;16.30;58.70;;;;;;5451362;26;20316;-71
2024/04/16 02:47:56;;;;;;;1.48;0.80;;;16.30;58.70;;;;;;5451905;26;20227;-72
2024/04/16 02:50:22;;;;;;;1.38;0.70;;;16.30;58.60;;;;;;5452211;26;20284;-74
2024/04/16 02:52:48;;;;;;;1.40;0.90;;;16.30;58.70;;;;;;5450867;26;20258;-72
2024/04/16 02:55:17;;;;;;;1.65;0.82;;;16.30;58.70;;;;;;5452169;26;20223;-72
2024/04/16 02:57:42;;;;;;;2.25;1.10;;;16.30;58.70;;;;;;5451779;26;20312;-72
2024/04/16 03:00:08;;;;;;;1.45;0.90;;;16.30;58.60;;;;;;5451172;26;20729;-72
2024/04/16 03:02:34;;;;;;;1.90;0.93;;;16.30;58.70;;;;;;5451858;26;20223;-73
2024/04/16 03:04:59;;;;;;;1.55;0.90;;;16.30;58.70;;;;;;5451453;26;20314;-71
2024/04/16 03:07:25;;;;;;;2.13;0.90;;;16.30;58.60;;;;;;5450981;26;20231;-75
2024/04/16 03:09:50;;;;;;;1.60;0.73;;;16.20;58.60;;;;;;5451492;26;20235;-73
2024/04/16 03:12:16;;;;;;;1.60;1.20;;;16.20;58.60;;;;;;5451898;26;20223;-75
2024/04/16 03:14:41;;;;;;;1.67;0.75;;;16.20;58.60;;;;;;5450557;26;20316;-74
2024/04/16 03:17:07;;;;;;;1.40;0.85;;;16.20;58.60;;;;;;5450394;26;20687;-73
2024/04/16 03:19:32;;;;;;;2.28;1.00;;;16.20;58.60;;;;;;5451622;26;20705;-72
2024/04/16 03:21:58;;;;;;;2.08;0.80;;;16.20;58.60;;;;;;5450405;26;20216;-72
2024/04/16 03:24:23;;;;;;;2.65;0.85;;;16.20;59.20;;;;;;5451673;26;20257;-72
2024/04/16 03:26:49;;;;;;;2.53;1.00;;;16.20;58.60;;;;;;5451164;26;20258;-73
2024/04/16 03:29:15;;;;;;;2.15;0.90;;;16.20;58.60;;;;;;5450737;26;20220;-73
2024/04/16 03:31:40;;;;;;;1.35;0.70;;;16.20;58.60;;;;;;5451129;26;20258;-72
2024/04/16 03:34:06;;;;;;;1.00;0.65;;;16.20;58.60;;;;;;5451453;26;20690;-73
2024/04/16 03:36:32;;;;;;;0.90;0.70;;;16.20;58.60;;;;;;5450613;26;20211;-72
2024/04/16 03:38:57;;;;;;;1.83;1.40;;;16.20;58.60;;;;;;5450926;26;20258;-72
2024/04/16 03:41:24;;;;;;;2.17;0.73;;;16.20;58.60;;;;;;5451213;26;20220;-72
2024/04/16 03:43:50;;;;;;;1.38;0.98;;;16.20;58.60;;;;;;5450096;26;20211;-72
2024/04/16 03:46:15;;;;;;;1.30;0.77;;;16.20;58.60;;;;;;5451157;26;20216;-72
2024/04/16 03:48:41;;;;;;;0.93;0.60;;;16.20;58.60;;;;;;5450544;26;20565;-72
2024/04/16 03:51:06;;;;;;;1.20;0.63;;;16.20;58.60;;;;;;5450622;26;20216;-73
2024/04/16 03:53:32;;;;;;;1.23;0.57;;;16.10;58.60;;;;;;5451832;26;20219;-72
2024/04/16 03:55:59;;;;;;;0.98;0.60;;;16.10;58.60;;;;;;5453655;26;20215;-73
2024/04/16 03:58:26;;;;;;;0.93;0.52;;;16.10;58.70;;;;;;5454507;26;20675;-72
2024/04/16 04:01:03;;;;;;;2.08;0.75;;;16.10;58.60;;;;;;5454151;26;20219;-71
2024/04/16 04:03:29;;;;;;;1.70;0.70;;;16.10;58.60;;;;;;5453891;26;20219;-73
2024/04/16 04:05:55;;;;;;;0.68;0.60;;;16.10;58.60;;;;;;5454229;26;20254;-72
2024/04/16 04:08:21;;;;;;;1.80;1.13;;;16.10;59.30;;;;;;5454536;26;20216;-76
2024/04/16 04:10:46;;;;;;;0.43;0.40;;;16.10;58.70;;;;;;5453221;26;20656;-75
2024/04/16 04:13:12;;;;;;;1.20;0.60;;;16.10;58.60;;;;;;5454536;26;20259;-75
2024/04/16 04:15:37;;;;;;;0.70;0.70;;;16.10;58.60;;;;;;5453986;26;20732;-75
2024/04/16 04:18:04;;;;;;;1.73;0.60;;;16.10;58.60;;;;;;5452844;26;20740;-75
2024/04/16 04:20:29;;;;;;;1.02;0.50;;;16.10;58.60;;;;;;5454471;26;20220;-75
2024/04/16 04:22:55;;;;;;;0.80;0.80;;;16.10;58.60;;;;;;5453929;26;20596;-73
2024/04/16 04:25:20;;;;;;;0.50;0.50;;;16.10;58.60;;;;;;5453419;26;20262;-74
2024/04/16 04:27:46;;;;;;;1.35;0.80;;;16.10;58.60;;;;;;5453555;26;20258;-75
2024/04/16 04:30:13;;;;;;;0.60;0.60;;;16.10;58.60;;;;;;5454075;26;20219;-76
2024/04/16 04:32:38;;;;;;;1.88;0.70;;;16.10;58.60;;;;;;5453400;26;20220;-76
2024/04/16 04:35:04;;;;;;;0.93;0.77;;;16.10;58.80;;;;;;5453708;26;20403;-75
2024/04/16 04:37:30;;;;;;;0.90;0.60;;;16.00;58.60;;;;;;5453866;26;20257;-73
2024/04/16 04:39:55;;;;;;;1.10;0.65;;;16.10;58.60;;;;;;5451856;26;20220;-74
2024/04/16 04:42:21;;;;;;;2.03;0.65;;;16.00;58.60;;;;;;5454030;26;20554;-72
2024/04/16 04:44:47;;;;;;;1.63;0.88;;;16.00;58.70;;;;;;5453353;26;20219;-74
2024/04/16 04:47:12;;;;;;;0.60;0.60;;;16.00;58.60;;;;;;5453207;26;20219;-73
2024/04/16 04:49:38;;;;;;;1.20;0.80;;;16.00;58.60;;;;;;5453895;26;20291;-73
2024/04/16 04:52:04;;;;;;;2.03;0.90;;;16.00;58.60;;;;;;5452631;26;20262;-74
2024/04/16 04:54:29;;;;;;;0.98;0.82;;;16.00;58.60;;;;;;5453915;26;20219;-72
2024/04/16 04:56:55;;;;;;;0.90;0.70;;;16.00;59.20;;;;;;5453436;26;20259;-74
2024/04/16 04:59:20;;;;;;;1.48;0.75;;;16.00;58.60;;;;;;5452842;26;20959;-72
2024/04/16 05:01:46;;;;;;;0.63;0.63;;;16.00;58.60;;;;;;5453431;26;20713;-73
2024/04/16 05:04:11;;;;;;;0.88;0.70;;;16.00;58.60;;;;;;5453015;26;20219;-74
2024/04/16 05:06:38;;;;;;;3.17;0.77;;;16.00;58.60;;;;;;5452825;26;20460;-73
2024/04/16 05:09:04;;;;;;;0.60;0.50;;;16.00;58.60;;;;;;5453154;26;20231;-75
2024/04/16 05:11:30;;;;;;;0.60;0.60;;;15.90;58.50;;;;;;5453561;26;20219;-75
2024/04/16 05:13:56;;;;;;;1.60;0.70;;;16.00;58.50;;;;;;5452340;26;20575;-75
2024/04/16 05:16:21;;;;;;;0.60;0.60;;;16.00;58.60;;;;;;5453502;26;20678;-74
2024/04/16 05:18:47;;;;;;;1.67;0.80;;;15.90;58.50;;;;;;5453195;26;20327;-73
2024/04/16 05:21:12;;;;;;;1.38;0.60;;;15.90;58.50;;;;;;5452680;26;20652;-73
2024/04/16 05:23:38;;;;;;;0.98;0.60;;;15.90;58.50;;;;;;5453399;26;20211;-73
2024/04/16 05:26:04;;;;;;;0.77;0.68;;;15.90;58.60;;;;;;5452929;26;20270;-73
2024/04/16 05:28:29;;;;;;;0.60;0.52;;;15.90;58.60;;;;;;5452566;26;20945;-75
2024/04/16 05:30:55;;;;;;;1.92;0.77;;;15.90;58.60;;;;;;5452902;26;20277;-75
2024/04/16 05:33:21;;;;;;;1.52;0.68;;;15.90;58.50;;;;;;5453245;26;20729;-74
2024/04/16 05:35:46;;;;;;;1.13;0.75;;;15.90;58.50;;;;;;5451860;26;20220;-73
2024/04/16 05:38:12;;;;;;;1.60;0.52;;;15.90;58.50;;;;;;5452887;26;20223;-72
2024/04/16 05:40:37;;;;;;;0.80;0.65;;;15.90;58.50;;;;;;5453235;26;20219;-73
2024/04/16 05:43:03;;;;;;;0.73;0.73;;;16.00;58.40;;;;;;5451856;26;20267;-72
2024/04/16 05:45:28;;;;;;;1.00;0.70;;;16.00;58.30;;;;;;5453142;26;20263;-74
2024/04/16 05:47:54;;;;;;;1.42;0.80;;;16.10;58.20;;;;;;5452190;26;20647;-73
2024/04/16 05:50:19;;;;;;;1.38;0.60;;;16.20;58.10;;;;;;5452326;26;20258;-72
2024/04/16 05:52:45;;;;;;;0.90;0.65;;;16.30;58.20;;;;;;5452742;26;20219;-73
2024/04/16 05:55:10;;;;;;;1.15;0.68;;;16.40;58.10;;;;;;5452998;26;20258;-72
2024/04/16 05:57:36;;;;;;;0.45;0.45;;;16.50;58.00;;;;;;5451907;26;20223;-72
2024/04/16 06:00:01;;;;;;;1.40;0.50;;;16.60;58.00;;;;;;5452449;26;20315;-72
2024/04/16 06:02:27;;;;;;;0.47;0.40;;;16.70;57.80;;;;;;5452135;26;20223;-75
2024/04/16 06:04:52;;;;;;;0.95;0.63;;;16.80;57.60;;;;;;5452231;26;20323;-72
2024/04/16 06:07:20;;;;;;;0.60;0.60;;;16.90;57.50;;;;;;5452755;26;20392;-73
2024/04/16 06:09:45;;;;;;;0.60;0.60;;;17.00;57.20;;;;;;5451675;26;20254;-75
2024/04/16 06:12:11;;;;;;;0.82;0.50;;;17.10;57.10;;;;;;5452760;26;20267;-75
2024/04/16 06:14:36;;;;;;;0.80;0.50;;;17.20;57.10;;;;;;5452621;26;20219;-75
2024/04/16 06:17:02;;;;;;;0.73;0.47;;;17.20;57.00;;;;;;5450199;26;20277;-73
2024/04/16 06:19:27;;;;;;;0.50;0.50;;;17.20;56.90;;;;;;5452257;26;20220;-72
2024/04/16 06:21:53;;;;;;;0.65;0.40;;;17.20;56.90;;;;;;5452031;26;20552;-73
2024/04/16 06:24:18;;;;;;;1.58;0.70;;;17.30;57.00;;;;;;5451572;26;20215;-73
2024/04/16 06:26:44;;;;;;;0.70;0.40;;;17.30;56.90;;;;;;5452129;26;20216;-72
2024/04/16 06:29:09;;;;;;;0.82;0.55;;;17.30;56.90;;;;;;5452503;26;20258;-74
2024/04/16 06:31:35;;;;;;;0.77;0.45;;;17.30;56.90;;;;;;5451450;26;20249;-74
2024/04/16 06:34:01;;;;;;;1.08;0.52;;;17.40;56.90;;;;;;5454033;26;20254;-74
2024/04/16 06:36:26;;;;;;;1.50;0.60;;;17.40;56.90;;;;;;5452450;26;20219;-72
2024/04/16 06:38:51;;;;;;;1.27;0.47;;;17.40;56.90;;;;;;5450800;26;20219;-68
2024/04/16 06:41:17;;;;;;;0.60;0.60;;;17.50;56.90;;;;;;5452328;26;20274;-68
2024/04/16 06:43:43;;;;;;;5.40;0.70;;;17.50;56.90;;;;;;5450921;26;20720;-68
2024/04/16 06:46:08;;;;;;;1.17;0.70;;;17.50;57.10;;;;;;5451470;26;20605;-68
2024/04/16 06:48:34;;;;;;;1.83;0.63;;;17.50;57.30;;;;;;5452231;26;20283;-67
2024/04/16 06:50:59;;;;;;;1.02;0.70;;;17.50;57.40;;;;;;5451931;26;20215;-68
2024/04/16 06:53:25;;;;;;;0.93;0.52;;;17.40;57.50;;;;;;5451202;26;20223;-70
2024/04/16 06:56:06;;;;;;;1.17;0.50;;;17.40;57.80;;;;;;5451710;26;20802;-63
2024/04/16 06:58:32;;;;;;;2.42;0.60;;;17.40;58.00;;;;;;5452030;26;20223;-64
2024/04/16 07:00:58;;;;;;;1.73;0.60;;;17.40;58.10;;;;;;5450933;26;20215;-64
2024/04/16 07:03:23;;;;;;;2.85;0.60;;;17.30;58.10;;;;;;5452031;26;20262;-65
2024/04/16 07:05:49;;;;;;;2.42;0.70;;;17.30;58.30;;;;;;5450621;26;20220;-64
2024/04/16 07:08:15;;;;;;;1.70;0.75;;;17.30;58.40;;;;;;5452020;26;20215;-67
2024/04/16 07:10:40;;;;;;;1.48;0.80;;;17.30;58.60;;;;;;5451389;26;20220;-66
2024/04/16 07:13:06;;;;;;;2.80;0.80;;;17.30;58.60;;;;;;5450903;26;20319;-67
2024/04/16 07:15:33;;;;;;;1.48;0.50;;;17.20;58.90;;;;;;5451755;26;20216;-68
2024/04/16 07:17:58;;;;;;;1.30;0.80;;;17.10;58.80;;;;;;5451284;26;20293;-67
2024/04/16 07:20:24;;;;;;;2.22;0.60;;;17.10;59.10;;;;;;5450908;26;20223;-67
2024/04/16 07:22:49;;;;;;;2.05;0.90;;;17.10;59.20;;;;;;5451272;26;20251;-67
2024/04/16 07:25:15;;;;;;;2.42;0.98;;;17.00;59.30;;;;;;5451534;26;20227;-66
2024/04/16 07:27:41;;;;;;;2.38;0.80;;;17.00;59.30;;;;;;5451400;26;20264;-67
2024/04/16 07:30:07;;;;;;;3.65;0.70;;;17.00;59.40;;;;;;5455049;26;20254;-68
2024/04/16 07:32:33;;;;;;;1.67;0.60;;;17.00;59.30;;;;;;5455033;26;20219;-67
2024/04/16 07:34:58;;;;;;;1.98;0.90;;;16.90;59.30;;;;;;5453810;26;20667;-67
2024/04/16 07:37:24;;;;;;;2.15;0.80;;;16.90;59.40;;;;;;5454876;26;20227;-68
2024/04/16 07:39:50;;;;;;;1.52;0.60;;;16.80;59.40;;;;;;5454442;26;20215;-67
2024/04/16 07:42:15;;;;;;;4.80;1.23;;;16.80;59.50;;;;;;5454113;26;20215;-68
2024/04/16 07:44:41;;;;;;;2.33;0.70;;;16.80;59.60;;;;;;5454474;26;20567;-68
2024/04/16 07:47:07;;;;;;;2.95;1.05;;;16.80;59.50;;;;;;5454889;26;20315;-67
2024/04/16 07:49:32;;;;;;;2.70;0.77;;;16.80;59.50;;;;;;5453820;26;20227;-67
2024/04/16 07:51:58;;;;;;;3.25;0.90;;;16.80;59.50;;;;;;5454411;26;20227;-67
2024/04/16 07:54:23;;;;;;;3.10;0.93;;;16.80;59.50;;;;;;5454557;26;20228;-67
2024/04/16 07:56:50;;;;;;;1.38;0.75;;;16.80;59.50;;;;;;5453578;26;20220;-67
2024/04/16 07:59:16;;;;;;;2.00;0.95;;;16.90;59.50;;;;;;5454595;26;20267;-67
2024/04/16 08:01:41;;;;;;;3.40;1.05;;;16.90;59.40;;;;;;5454067;26;20265;-67
2024/04/16 08:04:07;;;;;;;1.98;0.93;;;17.00;59.40;;;;;;5453616;26;20327;-67
2024/04/16 08:06:32;;;;;;;4.47;1.23;;;17.00;59.30;;;;;;5454557;26;20279;-67
2024/04/16 08:08:58;;;;;;;2.88;1.35;;;17.00;59.30;;;;;;5453417;26;20223;-67
2024/04/16 08:11:23;;;;;;;2.88;1.00;;;17.00;59.40;;;;;;5454490;26;20266;-67
2024/04/16 08:13:50;;;;;;;2.70;1.13;;;17.00;59.40;;;;;;5454123;26;20258;-67
2024/04/16 08:16:16;;;;;;;1.17;0.98;;;17.00;59.40;;;;;;5453465;26;20305;-68
2024/04/16 08:18:41;;;;;;;1.65;0.75;;;17.10;59.30;;;;;;5454003;26;20223;-68
2024/04/16 08:21:07;;;;;;;2.47;0.88;;;17.10;59.30;;;;;;5454801;26;20710;-67
2024/04/16 08:23:32;;;;;;;1.58;0.77;;;17.10;59.30;;;;;;5453393;26;20568;-67
2024/04/16 08:26:07;;;;;;;2.58;1.05;;;17.10;59.20;;;;;;5453935;26;20216;-67
2024/04/16 08:28:32;;;;;;;1.98;1.10;;;17.10;59.20;;;;;;5454386;26;20211;-67
2024/04/16 08:31:00;;;;;;;1.92;0.85;;;17.20;59.20;;;;;;5453069;26;20227;-67
2024/04/16 08:33:25;;;;;;;2.85;1.10;;;17.10;59.20;;;;;;5454111;26;20223;-67
2024/04/16 08:35:51;;;;;;;2.28;0.80;;;17.10;59.20;;;;;;5453797;26;20753;-67
2024/04/16 08:38:17;;;;;;;2.03;0.90;;;17.10;59.20;;;;;;5453211;26;20242;-67
2024/04/16 08:40:45;;;;;;;2.65;0.98;;;17.10;59.30;;;;;;5421247;26;20217;-68
2024/04/16 08:43:10;;;;;;;3.53;1.00;;;17.00;59.30;;;;;;5454078;26;20598;-67
2024/04/16 08:45:36;;;;;;;1.25;0.55;;;17.10;59.40;;;;;;5421603;26;20215;-68
2024/04/16 08:48:01;;;;;;;1.92;0.80;;;17.10;59.30;;;;;;5453636;26;20216;-67
2024/04/16 08:50:27;;;;;;;1.10;0.70;;;17.10;59.30;;;;;;5422347;26;20573;-68
2024/04/16 08:52:53;;;;;;;3.42;1.10;;;17.20;59.20;;;;;;5452697;26;20215;-67
2024/04/16 08:55:21;;;;;;;2.22;1.00;;;17.20;59.00;;;;;;5453992;26;20224;-67
2024/04/16 08:57:47;;;;;;;1.48;0.80;;;17.30;59.10;;;;;;5421910;26;20270;-67
2024/04/16 09:00:13;;;;;;;3.25;0.90;;;17.30;59.10;;;;;;5452885;26;20732;-68
2024/04/16 09:02:38;;;;;;;1.90;0.90;;;17.30;58.90;;;;;;5453458;26;20618;-68
2024/04/16 09:05:04;;;;;;;2.30;0.77;;;17.40;58.90;;;;;;5452816;26;20219;-67
2024/04/16 09:07:30;;;;;;;3.03;0.90;;;17.30;58.90;;;;;;5452651;26;20254;-67
2024/04/16 09:09:56;;;;;;;2.25;0.93;;;17.30;59.10;;;;;;5452947;26;20224;-67
2024/04/16 09:12:22;;;;;;;1.88;0.90;;;17.30;59.10;;;;;;5452734;26;20270;-68
2024/04/16 09:14:47;;;;;;;2.17;0.93;;;17.30;59.10;;;;;;5452851;26;20262;-69
2024/04/16 09:17:16;;;;;;;0.82;0.70;;;17.30;59.00;;;;;;5453277;26;20274;-68
2024/04/16 09:19:41;;;;;;;1.48;0.75;;;17.40;58.90;;;;;;5452172;26;20320;-68
2024/04/16 09:22:07;;;;;;;2.15;0.77;;;17.40;58.80;;;;;;5421422;26;20235;-67
2024/04/16 09:24:33;;;;;;;2.00;0.93;;;17.40;58.90;;;;;;5453471;26;20228;-67
2024/04/16 09:27:03;;;;;;;1.92;0.70;;;17.30;59.00;;;;;;5452226;26;20320;-67
2024/04/16 09:29:28;;;;;;;1.30;0.68;;;17.30;59.10;;;;;;5453478;26;20215;-67
2024/04/16 09:32:00;;;;;;;1.83;0.70;;;17.30;59.10;;;;;;5452555;26;20254;-71
2024/04/16 09:34:26;;;;;;;1.70;0.68;;;17.30;59.10;;;;;;5452410;26;20254;-65
2024/04/16 09:36:51;;;;;;;2.20;1.00;;;17.30;59.00;;;;;;5452869;26;20263;-66
2024/04/16 09:39:21;;;;;;;1.33;1.10;;;17.30;59.10;;;;;;5453414;26;20216;-65
2024/04/16 09:41:51;;;;;;;2.50;1.08;;;17.20;59.20;;;;;;5421524;26;20220;-65
2024/04/16 09:44:17;;;;;;;2.67;0.75;;;17.30;59.30;;;;;;5453184;26;20219;-66
2024/04/16 09:46:46;;;;;;;2.28;0.75;;;17.30;59.30;;;;;;5452753;26;20265;-66
2024/04/16 09:49:13;;;;;;;2.92;0.80;;;17.30;59.20;;;;;;5452309;26;20223;-65
2024/04/16 09:51:38;;;;;;;2.53;0.65;;;17.40;59.20;;;;;;5451441;26;20219;-65
2024/04/16 09:54:05;;;;;;;3.90;0.80;;;17.40;59.10;;;;;;5452748;26;20266;-66
2024/04/16 09:56:33;;;;;;;3.47;1.50;;;17.40;59.20;;;;;;5420840;26;20227;-66
2024/04/16 09:58:59;;;;;;;2.97;0.80;;;17.30;60.00;;;;;;5421442;26;20291;-63
2024/04/16 10:01:24;;;;;;;2.42;0.73;;;17.30;59.50;;;;;;5421406;26;20231;-67
2024/04/16 10:03:51;;;;;;;1.65;0.70;;;17.30;59.40;;;;;;5390536;26;20219;-67
2024/04/16 10:06:16;;;;;;;3.33;0.80;;;17.40;59.30;;;;;;5452910;26;20308;-69
2024/04/16 10:08:42;;;;;;;1.52;0.60;;;17.40;59.30;;;;;;5451582;26;20227;-68
2024/04/16 10:11:07;;;;;;;2.05;0.65;;;17.40;59.30;;;;;;5421340;26;20254;-68
2024/04/16 10:13:33;;;;;;;1.13;0.70;;;17.30;59.40;;;;;;5421164;26;20270;-68
2024/04/16 10:15:58;;;;;;;0.70;0.50;;;17.40;59.40;;;;;;5451352;26;20265;-69
2024/04/16 10:18:25;;;;;;;2.58;0.68;;;17.50;59.30;;;;;;5452780;26;20593;-68
2024/04/16 10:20:51;;;;;;;2.45;0.60;;;17.60;59.10;;;;;;5452298;26;20220;-66
2024/04/16 10:23:18;;;;;;;3.63;1.02;;;17.50;59.10;;;;;;5451568;26;20215;-66
2024/04/16 10:25:51;;;;;;;2.15;0.70;;;17.50;59.30;;;;;;5452115;26;20274;-65
2024/04/16 10:28:24;;;;;;;1.25;0.50;;;17.50;59.40;;;;;;5452723;26;20742;-65
2024/04/16 10:31:00;;;;;;;1.83;0.82;;;17.50;59.40;;;;;;5451238;26;20227;-68
2024/04/16 10:33:26;;;;;;;1.13;0.80;;;17.50;59.30;;;;;;5452688;26;20227;-68
2024/04/16 10:35:53;;;;;;;1.08;0.57;;;17.60;59.20;;;;;;5452245;26;20258;-68
2024/04/16 10:38:18;;;;;;;3.30;0.77;;;17.60;59.10;;;;;;5452693;26;20224;-69
2024/04/16 10:40:52;;;;;;;1.70;0.80;;;17.60;59.10;;;;;;5451966;26;20319;-70
2024/04/16 10:43:24;;;;;;;2.70;0.55;;;17.60;59.40;;;;;;5420962;26;20261;-66
2024/04/16 10:45:49;;;;;;;3.97;1.02;;;17.60;59.10;;;;;;5420387;26;20219;-66
2024/04/16 10:48:17;;;;;;;3.03;0.77;;;17.50;59.20;;;;;;5452256;26;20227;-69
2024/04/16 10:50:43;;;;;;;2.65;0.70;;;17.50;59.90;;;;;;5451430;26;20215;-67
2024/04/16 10:53:16;;;;;;;2.03;0.80;;;17.50;59.40;;;;;;5420769;26;20227;-68
2024/04/16 10:55:42;;;;;;;3.75;0.77;;;17.50;59.40;;;;;;5451642;26;20287;-69
2024/04/16 10:58:08;;;;;;;3.67;0.75;;;17.50;59.40;;;;;;5451159;26;20261;-68
2024/04/16 11:00:33;;;;;;;1.92;0.68;;;17.40;59.40;;;;;;5420654;26;20323;-68
2024/04/16 11:03:00;;;;;;;1.75;0.88;;;17.50;59.40;;;;;;5451009;26;20223;-68
2024/04/16 11:05:25;;;;;;;1.95;0.57;;;17.50;59.40;;;;;;5419604;26;20345;-68
2024/04/16 11:07:51;;;;;;;2.88;0.60;;;17.50;59.40;;;;;;5451524;26;20694;-68
2024/04/16 11:10:16;;;;;;;1.52;0.70;;;17.50;59.40;;;;;;5451857;26;20215;-67
2024/04/16 11:12:42;;;;;;;0.65;0.50;;;17.40;59.50;;;;;;5450625;26;20541;-68
2024/04/16 11:15:08;;;;;;;1.83;0.85;;;17.40;59.60;;;;;;5451788;26;20659;-67
2024/04/16 11:17:33;;;;;;;5.13;1.00;;;17.30;59.60;;;;;;5405962;26;20286;-71
2024/04/16 11:19:59;;;;;;;1.20;0.50;;;17.30;59.60;;;;;;5450337;26;20219;-70
2024/04/16 11:22:25;;;;;;;2.20;0.70;;;17.40;59.70;;;;;;5420437;26;20215;-67
2024/04/16 11:24:51;;;;;;;4.22;0.68;;;17.40;59.60;;;;;;5419774;26;20274;-68
2024/04/16 11:27:17;;;;;;;1.65;0.60;;;17.50;59.50;;;;;;5450199;26;20220;-68
2024/04/16 11:30:06;;;;;;;1.73;0.50;;;17.50;59.40;;;;;;5451099;26;20219;-70
2024/04/16 11:32:31;;;;;;;1.52;0.70;;;17.50;59.50;;;;;;5451440;26;20316;-69
2024/04/16 11:34:57;;;;;;;4.40;0.73;;;17.50;59.50;;;;;;5450275;26;20227;-67
2024/04/16 11:37:22;;;;;;;1.67;0.63;;;17.40;59.50;;;;;;5449362;26;20277;-69
2024/04/16 11:39:48;;;;;;;2.13;0.50;;;17.40;59.60;;;;;;5450649;26;20269;-69
2024/04/16 11:42:13;;;;;;;2.78;0.60;;;17.40;59.70;;;;;;5449183;26;20726;-70
2024/04/16 11:44:39;;;;;;;1.20;0.80;;;17.40;59.60;;;;;;5450935;26;20332;-69
2024/04/16 11:47:06;;;;;;;3.13;0.52;;;17.40;59.60;;;;;;5450057;26;20239;-69
2024/04/16 11:49:31;;;;;;;0.32;0.30;;;17.40;60.20;;;;;;5451277;26;20315;-69
2024/04/16 11:52:00;;;;;;;1.67;0.50;;;17.40;59.40;;;;;;5450814;26;20231;-68
2024/04/16 11:54:26;;;;;;;3.00;0.70;;;17.50;59.20;;;;;;5450202;26;20266;-68
2024/04/16 11:56:51;;;;;;;0.90;0.50;;;17.50;59.20;;;;;;5450504;26;20227;-69
2024/04/16 11:59:17;;;;;;;0.82;0.40;;;17.40;59.20;;;;;;5450739;26;20324;-69
2024/04/16 12:01:42;;;;;;;0.85;0.60;;;17.40;59.40;;;;;;5449797;26;20618;-69
2024/04/16 12:04:08;;;;;;;0.63;0.40;;;17.30;59.40;;;;;;5451014;26;20693;-68
2024/04/16 12:06:33;;;;;;;2.35;0.80;;;17.30;59.50;;;;;;5450767;26;20257;-68
2024/04/16 12:08:59;;;;;;;1.50;0.50;;;17.30;59.50;;;;;;5449406;26;20782;-68
2024/04/16 12:11:25;;;;;;;1.80;0.50;;;17.40;59.40;;;;;;5450769;26;20235;-69
2024/04/16 12:13:51;;;;;;;1.73;0.68;;;17.50;59.10;;;;;;5450485;26;20319;-68
2024/04/16 12:16:17;;;;;;;1.52;0.50;;;17.50;59.00;;;;;;5450611;26;20223;-69
2024/04/16 12:18:42;;;;;;;0.38;0.28;;;17.50;59.10;;;;;;5418100;26;20217;-69
2024/04/16 12:21:08;;;;;;;0.82;0.52;;;17.40;59.10;;;;;;5418835;26;20325;-68
2024/04/16 12:23:33;;;;;;;1.52;0.40;;;17.60;59.10;;;;;;5417536;26;20689;-68
2024/04/16 12:25:59;;;;;;;0.60;0.30;;;17.60;58.90;;;;;;5417927;26;20259;-68
2024/04/16 12:28:24;;;;;;;0.65;0.50;;;17.70;58.80;;;;;;5418263;26;20285;-68
2024/04/16 12:30:50;;;;;;;3.03;0.60;;;17.70;58.70;;;;;;5417004;26;20220;-68
2024/04/16 12:33:16;;;;;;;0.40;0.40;;;17.70;58.60;;;;;;5418272;26;20321;-68
2024/04/16 12:35:42;;;;;;;0.98;0.47;;;17.70;58.60;;;;;;5417740;26;20217;-69
2024/04/16 12:38:07;;;;;;;0.63;0.32;;;17.80;59.20;;;;;;5417358;26;20217;-68
2024/04/16 12:40:33;;;;;;;0.80;0.35;;;17.80;58.50;;;;;;5418219;26;20587;-70